createdAt,value
2023-05-10T00:00:56.719Z,13.96
2023-05-10T00:03:23.768Z,13.93
2023-05-10T00:05:50.943Z,13.91
2023-05-10T00:08:17.889Z,13.88
2023-05-10T00:10:44.898Z,13.87
2023-05-10T00:13:12.000Z,13.84
2023-05-10T00:15:38.924Z,13.84
2023-05-10T00:18:05.893Z,13.83
2023-05-10T00:20:33.076Z,13.80
2023-05-10T00:23:00.076Z,13.79
2023-05-10T00:25:27.094Z,13.79
2023-05-10T00:27:56.103Z,13.76
2023-05-10T00:30:23.052Z,13.75
2023-05-10T00:32:50.741Z,13.74
2023-05-10T00:35:17.949Z,13.73
2023-05-10T00:37:44.883Z,13.68
2023-05-10T00:40:12.531Z,13.67
2023-05-10T00:42:41.160Z,13.66
2023-05-10T00:45:08.970Z,13.63
2023-05-10T00:47:36.827Z,13.61
2023-05-10T00:50:05.570Z,13.61
2023-05-10T00:52:33.068Z,13.59
2023-05-10T00:55:00.907Z,13.59
2023-05-10T00:57:28.323Z,13.60
2023-05-10T00:59:55.422Z,13.58
2023-05-10T01:02:22.441Z,13.58
2023-05-10T01:04:50.504Z,13.58
2023-05-10T01:07:17.838Z,13.58
2023-05-10T01:09:44.908Z,13.59
2023-05-10T01:12:12.819Z,13.59
2023-05-10T01:14:40.375Z,13.58
2023-05-10T01:17:08.415Z,13.59
2023-05-10T01:19:37.878Z,13.59
2023-05-10T01:22:11.232Z,13.57
2023-05-10T01:25:09.028Z,13.56
2023-05-10T01:28:16.593Z,13.52
2023-05-10T01:31:03.798Z,13.49
2023-05-10T01:33:55.468Z,13.45
2023-05-10T01:36:52.160Z,13.42
2023-05-10T01:39:33.135Z,13.39
2023-05-10T01:42:07.389Z,13.35
2023-05-10T01:44:57.717Z,13.32
2023-05-10T01:47:32.317Z,13.29
2023-05-10T01:50:05.064Z,13.29
2023-05-10T01:52:39.228Z,13.25
2023-05-10T01:55:10.131Z,13.23
2023-05-10T01:57:40.465Z,13.21
2023-05-10T02:00:09.457Z,13.20
2023-05-10T02:02:47.059Z,13.20
2023-05-10T02:05:16.998Z,13.18
2023-05-10T02:07:44.826Z,13.18
2023-05-10T02:10:14.498Z,13.17
2023-05-10T02:12:48.353Z,13.16
2023-05-10T02:15:22.990Z,13.15
2023-05-10T02:17:50.476Z,13.15
2023-05-10T02:20:20.227Z,13.12
2023-05-10T02:22:50.337Z,13.12
2023-05-10T02:25:21.170Z,13.11
2023-05-10T02:27:49.214Z,13.09
2023-05-10T02:30:17.998Z,13.09
2023-05-10T02:32:46.474Z,13.08
2023-05-10T02:35:13.696Z,13.08
2023-05-10T02:37:42.201Z,13.07
2023-05-10T02:40:11.819Z,13.09
2023-05-10T02:42:43.060Z,13.08
2023-05-10T02:45:15.906Z,13.08
2023-05-10T02:47:44.629Z,13.08
2023-05-10T02:50:11.873Z,13.08
2023-05-10T02:52:49.010Z,13.07
2023-05-10T02:55:20.425Z,13.08
2023-05-10T02:57:55.488Z,13.06
2023-05-10T03:00:22.634Z,13.07
2023-05-10T03:02:49.687Z,13.05
2023-05-10T03:05:17.057Z,13.06
2023-05-10T03:07:44.764Z,13.07
2023-05-10T03:10:12.173Z,13.06
2023-05-10T03:12:57.836Z,13.05
2023-05-10T03:15:39.786Z,13.05
2023-05-10T03:18:13.752Z,13.05
2023-05-10T03:20:47.221Z,13.04
2023-05-10T03:23:44.163Z,13.03
2023-05-10T03:26:15.989Z,13.04
2023-05-10T03:28:43.637Z,13.03
2023-05-10T03:31:11.528Z,13.04
2023-05-10T03:33:51.388Z,13.02
2023-05-10T03:36:23.571Z,13.01
2023-05-10T03:38:50.952Z,13.02
2023-05-10T03:41:18.408Z,13.01
2023-05-10T03:43:45.404Z,13.03
2023-05-10T03:46:12.450Z,13.02
2023-05-10T03:48:39.829Z,13.02
2023-05-10T03:51:06.850Z,13.01
2023-05-10T03:53:33.818Z,13.02
2023-05-10T03:56:00.903Z,13.01
2023-05-10T03:58:28.078Z,13.02
2023-05-10T04:00:55.050Z,13.01
2023-05-10T04:03:22.242Z,13.01
2023-05-10T04:05:49.339Z,13.00
2023-05-10T04:08:17.408Z,13.00
2023-05-10T04:10:44.525Z,13.00
2023-05-10T04:13:12.146Z,12.99
2023-05-10T04:15:39.111Z,12.99
2023-05-10T04:18:08.678Z,12.99
2023-05-10T04:20:35.970Z,12.99
2023-05-10T04:23:02.926Z,12.99
2023-05-10T04:25:29.832Z,13.00
2023-05-10T04:27:56.783Z,12.99
2023-05-10T04:30:23.767Z,12.99
2023-05-10T04:32:50.758Z,13.00
2023-05-10T04:35:17.837Z,12.99
2023-05-10T04:37:44.798Z,12.99
2023-05-10T04:40:12.299Z,12.99
2023-05-10T04:42:42.320Z,12.99
2023-05-10T04:45:10.545Z,13.01
2023-05-10T04:47:38.048Z,13.01
2023-05-10T04:50:06.237Z,13.00
2023-05-10T04:52:33.210Z,13.01
2023-05-10T04:55:00.206Z,13.01
2023-05-10T04:57:27.208Z,13.02
2023-05-10T04:59:54.202Z,13.02
2023-05-10T05:02:21.253Z,13.02
2023-05-10T05:04:48.234Z,13.03
2023-05-10T05:07:15.705Z,13.05
2023-05-10T05:09:42.663Z,13.08
2023-05-10T05:12:14.686Z,13.09
2023-05-10T05:14:42.193Z,13.13
2023-05-10T05:17:09.173Z,13.12
2023-05-10T05:19:36.603Z,13.13
2023-05-10T05:22:03.600Z,13.16
2023-05-10T05:24:35.690Z,13.18
2023-05-10T05:27:02.702Z,13.19
2023-05-10T05:29:29.789Z,13.21
2023-05-10T05:31:56.804Z,13.21
2023-05-10T05:34:23.838Z,13.23
2023-05-10T05:36:51.043Z,13.25
2023-05-10T05:39:18.077Z,13.27
2023-05-10T05:41:45.144Z,13.29
2023-05-10T05:44:12.110Z,13.30
2023-05-10T05:46:39.030Z,13.32
2023-05-10T05:49:05.969Z,13.35
2023-05-10T05:51:33.151Z,13.38
2023-05-10T05:54:00.159Z,13.40
2023-05-10T05:56:27.123Z,13.42
2023-05-10T05:58:54.171Z,13.44
2023-05-10T06:01:22.095Z,13.47
2023-05-10T06:03:50.908Z,13.47
2023-05-10T06:06:18.798Z,13.48
2023-05-10T06:08:45.848Z,13.50
2023-05-10T06:11:12.960Z,13.52
2023-05-10T06:13:41.873Z,13.55
2023-05-10T06:16:08.920Z,13.58
2023-05-10T06:18:35.912Z,13.59
2023-05-10T06:21:02.909Z,13.62
2023-05-10T06:23:29.831Z,13.65
2023-05-10T06:25:56.813Z,13.67
2023-05-10T06:28:23.760Z,13.67
2023-05-10T06:30:50.721Z,13.69
2023-05-10T06:33:17.674Z,13.72
2023-05-10T06:35:44.643Z,13.75
2023-05-10T06:38:11.667Z,13.76
2023-05-10T06:40:42.320Z,13.77
2023-05-10T06:43:09.792Z,13.79
2023-05-10T06:45:36.773Z,13.80
2023-05-10T06:48:03.921Z,13.80
2023-05-10T06:50:30.967Z,13.81
2023-05-10T06:52:57.887Z,13.82
2023-05-10T06:55:24.834Z,13.84
2023-05-10T06:57:51.882Z,13.83
2023-05-10T07:00:20.407Z,13.86
2023-05-10T07:02:48.713Z,13.85
2023-05-10T07:05:16.284Z,13.87
2023-05-10T07:07:43.724Z,13.89
2023-05-10T07:10:17.359Z,13.89
2023-05-10T07:12:44.396Z,13.94
2023-05-10T07:15:11.637Z,13.93
2023-05-10T07:17:38.770Z,13.95
2023-05-10T07:20:06.765Z,14.00
2023-05-10T07:22:33.756Z,14.04
2023-05-10T07:25:00.722Z,14.08
2023-05-10T07:27:27.676Z,14.11
2023-05-10T07:29:55.541Z,14.14
2023-05-10T07:32:22.722Z,14.19
2023-05-10T07:34:49.811Z,14.23
2023-05-10T07:37:17.154Z,14.28
2023-05-10T07:39:44.114Z,14.31
2023-05-10T07:42:11.071Z,14.33
2023-05-10T07:44:38.000Z,14.37
2023-05-10T07:47:04.990Z,14.39
2023-05-10T07:49:31.932Z,14.44
2023-05-10T07:51:58.836Z,14.51
2023-05-10T07:54:25.788Z,14.62
2023-05-10T07:56:52.930Z,14.70
2023-05-10T07:59:19.896Z,14.76
2023-05-10T08:01:47.020Z,14.82
2023-05-10T08:04:14.184Z,14.87
2023-05-10T08:06:41.738Z,14.94
2023-05-10T08:09:09.410Z,14.99
2023-05-10T08:11:36.429Z,15.04
2023-05-10T08:14:03.627Z,15.08
2023-05-10T08:16:30.645Z,15.10
2023-05-10T08:18:57.854Z,15.18
2023-05-10T08:21:24.889Z,15.20
2023-05-10T08:23:51.906Z,15.26
2023-05-10T08:26:18.820Z,15.27
2023-05-10T08:28:45.778Z,15.32
2023-05-10T08:31:13.366Z,15.37
2023-05-10T08:33:42.196Z,15.38
2023-05-10T08:36:10.173Z,15.36
2023-05-10T08:38:38.426Z,15.40
2023-05-10T08:41:06.858Z,15.38
2023-05-10T08:43:35.275Z,15.40
2023-05-10T08:46:03.935Z,15.44
2023-05-10T08:48:32.035Z,15.47
2023-05-10T08:51:01.194Z,15.59
2023-05-10T08:53:31.995Z,15.64
2023-05-10T08:55:58.932Z,15.69
2023-05-10T08:58:26.561Z,15.73
2023-05-10T09:00:54.362Z,15.68
2023-05-10T09:03:21.522Z,15.69
2023-05-10T09:05:49.962Z,15.68
2023-05-10T09:08:18.262Z,15.69
2023-05-10T09:10:48.301Z,15.67
2023-05-10T09:13:16.549Z,15.64
2023-05-10T09:15:45.554Z,15.64
2023-05-10T09:18:13.334Z,15.69
2023-05-10T09:20:41.045Z,15.64
2023-05-10T09:23:08.364Z,15.67
2023-05-10T09:25:35.976Z,15.69
2023-05-10T09:28:02.984Z,15.71
2023-05-10T09:30:31.608Z,15.81
2023-05-10T09:33:00.372Z,15.88
2023-05-10T09:35:33.286Z,15.92
2023-05-10T09:38:05.873Z,16.01
2023-05-10T09:40:33.167Z,16.05
2023-05-10T09:43:07.219Z,16.12
2023-05-10T09:45:38.483Z,16.18
2023-05-10T09:48:06.947Z,16.23
2023-05-10T09:50:35.059Z,16.29
2023-05-10T09:53:04.348Z,16.33
2023-05-10T09:55:37.042Z,16.43
2023-05-10T09:58:05.278Z,16.49
2023-05-10T10:00:42.081Z,16.55
2023-05-10T10:03:16.179Z,16.60
2023-05-10T10:05:44.799Z,16.71
2023-05-10T10:08:13.113Z,16.82
2023-05-10T10:10:41.501Z,16.98
2023-05-10T10:13:09.032Z,17.09
2023-05-10T10:15:36.730Z,17.09
2023-05-10T10:18:07.551Z,17.11
2023-05-10T10:20:34.868Z,17.07
2023-05-10T10:23:01.800Z,17.11
2023-05-10T10:25:29.388Z,17.19
2023-05-10T10:28:12.602Z,17.07
2023-05-10T10:30:52.234Z,17.20
2023-05-10T10:33:46.843Z,17.38
2023-05-10T10:36:16.549Z,17.37
2023-05-10T10:38:49.421Z,17.48
2023-05-10T10:41:41.725Z,17.53
2023-05-10T10:44:26.713Z,17.55
2023-05-10T10:47:06.881Z,17.56
2023-05-10T10:49:38.525Z,17.79
2023-05-10T10:52:37.982Z,18.01
2023-05-10T10:55:18.246Z,18.06
2023-05-10T10:57:49.510Z,18.05
2023-05-10T11:00:34.107Z,17.88
2023-05-10T11:03:14.261Z,17.86
2023-05-10T11:05:48.963Z,17.97
2023-05-10T11:08:35.747Z,18.02
2023-05-10T11:11:10.335Z,18.08
2023-05-10T11:13:50.198Z,18.04
2023-05-10T11:16:26.243Z,17.94
2023-05-10T11:19:12.209Z,17.88
2023-05-10T11:21:51.541Z,18.02
2023-05-10T11:24:27.776Z,18.08
2023-05-10T11:26:54.851Z,18.12
2023-05-10T11:29:21.983Z,18.19
2023-05-10T11:31:51.609Z,18.38
2023-05-10T11:34:34.485Z,18.41
2023-05-10T11:37:01.850Z,18.55
2023-05-10T11:39:31.221Z,18.62
2023-05-10T11:41:59.169Z,18.67
2023-05-10T11:44:35.532Z,18.66
2023-05-10T11:47:03.375Z,18.48
2023-05-10T11:49:30.722Z,18.49
2023-05-10T11:52:08.436Z,18.52
2023-05-10T11:54:38.305Z,18.48
2023-05-10T11:57:06.148Z,18.40
2023-05-10T11:59:33.552Z,18.29
2023-05-10T12:02:00.941Z,18.31
2023-05-10T12:04:31.754Z,18.18
2023-05-10T12:07:03.688Z,18.08
2023-05-10T12:09:44.650Z,18.02
2023-05-10T12:12:17.874Z,17.78
2023-05-10T12:14:44.808Z,17.63
2023-05-10T12:17:14.978Z,17.48
2023-05-10T12:19:42.409Z,17.23
2023-05-10T12:22:09.340Z,17.08
2023-05-10T12:24:39.002Z,16.98
2023-05-10T12:27:09.236Z,16.87
2023-05-10T12:29:36.860Z,16.78
2023-05-10T12:32:03.914Z,16.77
2023-05-10T12:34:37.143Z,16.79
2023-05-10T12:37:05.206Z,16.86
2023-05-10T12:39:45.604Z,16.94
2023-05-10T12:42:12.743Z,16.99
2023-05-10T12:44:40.715Z,17.15
2023-05-10T12:47:07.945Z,17.26
2023-05-10T12:49:35.146Z,17.45
2023-05-10T12:52:04.033Z,17.66
2023-05-10T12:54:31.051Z,17.93
2023-05-10T12:56:57.978Z,18.12
2023-05-10T12:59:24.909Z,18.52
2023-05-10T13:01:51.880Z,18.99
2023-05-10T13:04:18.836Z,19.13
2023-05-10T13:06:46.030Z,19.44
2023-05-10T13:09:13.007Z,19.68
2023-05-10T13:11:40.435Z,19.70
2023-05-10T13:14:07.383Z,19.78
2023-05-10T13:16:34.447Z,19.98
2023-05-10T13:19:01.544Z,20.04
2023-05-10T13:21:28.844Z,20.12
2023-05-10T13:23:56.431Z,20.14
2023-05-10T13:26:23.477Z,20.24
2023-05-10T13:28:52.404Z,20.14
2023-05-10T13:31:19.412Z,20.11
2023-05-10T13:33:46.559Z,20.04
2023-05-10T13:36:13.562Z,20.00
2023-05-10T13:38:40.562Z,19.92
2023-05-10T13:41:07.506Z,19.93
2023-05-10T13:43:34.529Z,19.83
2023-05-10T13:46:01.715Z,19.84
2023-05-10T13:48:28.708Z,19.82
2023-05-10T13:50:55.816Z,19.77
2023-05-10T13:53:23.077Z,19.79
2023-05-10T13:55:50.458Z,19.60
2023-05-10T13:58:17.527Z,19.62
2023-05-10T14:00:44.455Z,19.54
2023-05-10T14:03:12.106Z,19.53
2023-05-10T14:05:39.565Z,19.46
2023-05-10T14:08:06.948Z,19.51
2023-05-10T14:10:33.991Z,19.53
2023-05-10T14:13:01.144Z,19.44
2023-05-10T14:15:29.198Z,19.34
2023-05-10T14:17:56.339Z,19.47
2023-05-10T14:20:23.407Z,19.46
2023-05-10T14:22:50.528Z,19.52
2023-05-10T14:25:18.516Z,19.46
2023-05-10T14:27:45.720Z,19.45
2023-05-10T14:30:13.217Z,19.54
2023-05-10T14:32:40.190Z,19.60
2023-05-10T14:35:09.431Z,19.66
2023-05-10T14:37:37.911Z,19.73
2023-05-10T14:40:05.610Z,19.78
2023-05-10T14:42:32.694Z,19.96
2023-05-10T14:44:59.717Z,20.02
2023-05-10T14:47:26.678Z,20.11
2023-05-10T14:49:53.605Z,20.09
2023-05-10T14:52:20.650Z,20.08
2023-05-10T14:54:47.604Z,20.05
2023-05-10T14:57:14.518Z,19.97
2023-05-10T14:59:41.496Z,19.89
2023-05-10T15:02:09.296Z,19.77
2023-05-10T15:04:36.747Z,19.56
2023-05-10T15:07:05.029Z,19.59
2023-05-10T15:09:32.007Z,19.52
2023-05-10T15:11:59.033Z,19.54
2023-05-10T15:14:26.175Z,19.75
2023-05-10T15:16:53.128Z,19.81
2023-05-10T15:19:21.271Z,19.78
2023-05-10T15:21:48.293Z,19.77
2023-05-10T15:24:15.460Z,19.74
2023-05-10T15:26:42.553Z,19.44
2023-05-10T15:29:09.527Z,19.42
2023-05-10T15:31:36.875Z,19.49
2023-05-10T15:34:03.931Z,19.55
2023-05-10T15:36:32.422Z,19.56
2023-05-10T15:38:59.383Z,19.59
2023-05-10T15:41:26.300Z,19.69
2023-05-10T15:43:54.453Z,19.77
2023-05-10T15:46:21.432Z,19.87
2023-05-10T15:48:48.390Z,20.11
2023-05-10T15:51:15.742Z,20.33
2023-05-10T15:53:56.531Z,20.36
2023-05-10T15:56:30.015Z,20.72
2023-05-10T15:58:57.039Z,20.87
2023-05-10T16:01:24.057Z,21.07
2023-05-10T16:03:51.034Z,21.19
2023-05-10T16:06:18.100Z,21.35
2023-05-10T16:08:45.017Z,21.41
2023-05-10T16:11:11.964Z,21.52
2023-05-10T16:13:38.894Z,21.48
2023-05-10T16:16:08.741Z,21.43
2023-05-10T16:18:36.043Z,21.13
2023-05-10T16:21:03.264Z,20.97
2023-05-10T16:23:30.562Z,21.16
2023-05-10T16:25:57.572Z,21.34
2023-05-10T16:28:24.536Z,21.36
2023-05-10T16:30:51.846Z,21.44
2023-05-10T16:33:18.804Z,21.32
2023-05-10T16:35:45.771Z,21.19
2023-05-10T16:38:12.733Z,21.02
2023-05-10T16:40:39.823Z,20.84
2023-05-10T16:43:07.683Z,20.66
2023-05-10T16:45:34.797Z,20.49
2023-05-10T16:48:01.841Z,20.31
2023-05-10T16:50:28.824Z,20.15
2023-05-10T16:52:55.775Z,20.04
2023-05-10T16:55:25.434Z,19.91
2023-05-10T16:57:58.539Z,19.72
2023-05-10T17:00:29.015Z,19.56
2023-05-10T17:02:56.384Z,19.45
2023-05-10T17:05:23.508Z,19.29
2023-05-10T17:07:50.512Z,19.27
2023-05-10T17:10:17.685Z,19.22
2023-05-10T17:12:45.521Z,19.15
2023-05-10T17:15:12.750Z,19.11
2023-05-10T17:17:39.729Z,19.09
2023-05-10T17:20:08.276Z,19.03
2023-05-10T17:22:35.309Z,18.93
2023-05-10T17:25:02.270Z,18.75
2023-05-10T17:27:30.126Z,18.62
2023-05-10T17:29:57.886Z,18.54
2023-05-10T17:32:25.795Z,18.44
2023-05-10T17:34:52.761Z,18.32
2023-05-10T17:37:19.685Z,18.24
2023-05-10T17:39:46.659Z,18.16
2023-05-10T17:42:16.166Z,18.10
2023-05-10T17:44:43.906Z,18.01
2023-05-10T17:47:10.893Z,17.91
2023-05-10T17:49:37.928Z,17.83
2023-05-10T17:52:04.998Z,17.73
2023-05-10T17:54:32.044Z,17.65
2023-05-10T17:57:00.756Z,17.57
2023-05-10T17:59:27.721Z,17.49
2023-05-10T18:01:54.628Z,17.42
2023-05-10T18:04:21.711Z,17.35
2023-05-10T18:06:49.267Z,17.27
2023-05-10T18:09:17.789Z,17.21
2023-05-10T18:11:44.700Z,17.13
2023-05-10T18:14:11.622Z,17.06
2023-05-10T18:16:38.607Z,16.98
2023-05-10T18:19:05.619Z,16.92
2023-05-10T18:21:32.667Z,16.85
2023-05-10T18:23:59.734Z,16.80
2023-05-10T18:26:26.686Z,16.73
2023-05-10T18:28:53.606Z,16.66
2023-05-10T18:31:20.795Z,16.56
2023-05-10T18:33:47.763Z,16.50
2023-05-10T18:36:15.029Z,16.43
2023-05-10T18:38:42.068Z,16.35
2023-05-10T18:41:12.240Z,16.29
2023-05-10T18:43:39.181Z,16.22
2023-05-10T18:46:06.210Z,16.16
2023-05-10T18:48:33.188Z,16.10
2023-05-10T18:51:00.185Z,16.02
2023-05-10T18:53:27.120Z,15.96
2023-05-10T18:55:58.886Z,15.89
2023-05-10T18:58:28.104Z,15.83
2023-05-10T19:00:55.285Z,15.77
2023-05-10T19:03:22.513Z,15.72
2023-05-10T19:05:49.444Z,15.64
2023-05-10T19:08:17.090Z,15.59
2023-05-10T19:10:44.270Z,15.52
2023-05-10T19:13:11.276Z,15.46
2023-05-10T19:15:38.400Z,15.38
2023-05-10T19:18:08.721Z,15.32
2023-05-10T19:20:35.832Z,15.25
2023-05-10T19:25:35.960Z,15.14
2023-05-10T19:28:02.908Z,15.08
2023-05-10T19:30:31.819Z,15.04
2023-05-10T19:32:58.857Z,15.01
2023-05-10T19:35:25.797Z,14.97
2023-05-10T19:37:52.729Z,14.93
2023-05-10T19:40:19.891Z,14.90
2023-05-10T19:42:46.961Z,14.87
2023-05-10T19:45:15.523Z,14.85
2023-05-10T19:47:43.145Z,14.84
2023-05-10T19:50:12.271Z,14.82
2023-05-10T19:52:39.428Z,14.80
2023-05-10T19:55:07.201Z,14.77
2023-05-10T19:57:34.180Z,14.76
2023-05-10T20:00:01.127Z,14.75
2023-05-10T20:02:28.145Z,14.74
2023-05-10T20:04:55.102Z,14.72
2023-05-10T20:07:22.285Z,14.70
2023-05-10T20:09:49.539Z,14.68
2023-05-10T20:12:16.604Z,14.67
2023-05-10T20:14:43.766Z,14.65
2023-05-10T20:17:11.108Z,14.63
2023-05-10T20:19:38.191Z,14.61
2023-05-10T20:22:05.471Z,14.60
2023-05-10T20:24:32.455Z,14.57
2023-05-10T20:27:00.403Z,14.55
2023-05-10T20:29:27.342Z,14.53
2023-05-10T20:31:54.315Z,14.51
2023-05-10T20:34:21.439Z,14.46
2023-05-10T20:36:48.665Z,14.43
2023-05-10T20:39:15.608Z,14.41
2023-05-10T20:41:42.610Z,14.37
2023-05-10T20:44:09.606Z,14.34
2023-05-10T20:46:36.722Z,14.30
2023-05-10T20:49:04.644Z,14.27
2023-05-10T20:51:33.152Z,14.24
2023-05-10T20:54:02.454Z,14.22
2023-05-10T20:56:29.498Z,14.18
2023-05-10T20:58:56.521Z,14.17
2023-05-10T21:01:23.628Z,14.14
2023-05-10T21:03:50.615Z,14.12
2023-05-10T21:06:17.593Z,14.08
2023-05-10T21:08:44.522Z,14.06
2023-05-10T21:11:11.482Z,14.03
2023-05-10T21:13:38.403Z,14.01
2023-05-10T21:16:05.683Z,14.00
2023-05-10T21:18:32.700Z,13.97
2023-05-10T21:20:59.883Z,13.94
2023-05-10T21:23:26.868Z,13.93
2023-05-10T21:25:53.826Z,13.88
2023-05-10T21:28:20.786Z,13.85
2023-05-10T21:30:47.885Z,13.83
2023-05-10T21:33:14.863Z,13.78
2023-05-10T21:35:43.057Z,13.74
2023-05-10T21:38:10.341Z,13.71
2023-05-10T21:40:38.541Z,13.68
2023-05-10T21:43:06.075Z,13.62
2023-05-10T21:45:39.028Z,13.61
2023-05-10T21:48:06.119Z,13.57
2023-05-10T21:50:33.057Z,13.55
2023-05-10T21:53:00.053Z,13.53
2023-05-10T21:55:27.363Z,13.51
2023-05-10T21:57:54.281Z,13.49
2023-05-10T22:00:21.416Z,13.45
2023-05-10T22:02:48.426Z,13.43
2023-05-10T22:05:15.530Z,13.41
2023-05-10T22:07:42.473Z,13.39
2023-05-10T22:10:09.825Z,13.36
2023-05-10T22:12:36.858Z,13.35
2023-05-10T22:17:34.482Z,13.31
2023-05-10T22:20:01.430Z,13.29
2023-05-10T22:22:28.488Z,13.28
2023-05-10T22:24:55.429Z,13.26
2023-05-10T22:27:22.358Z,13.25
2023-05-10T22:29:49.289Z,13.23
2023-05-10T22:32:16.221Z,13.21
2023-05-10T22:34:43.186Z,13.19
2023-05-10T22:37:14.696Z,13.17
2023-05-10T22:39:41.650Z,13.16
2023-05-10T22:42:08.579Z,13.14
2023-05-10T22:44:35.520Z,13.11
2023-05-10T22:47:02.977Z,13.08
2023-05-10T22:49:29.941Z,13.06
2023-05-10T22:51:56.879Z,13.02
2023-05-10T22:54:23.881Z,13.01
2023-05-10T22:56:51.017Z,12.99
2023-05-10T22:59:18.020Z,12.96
2023-05-10T23:01:44.966Z,12.93
2023-05-10T23:04:12.409Z,12.91
2023-05-10T23:06:39.658Z,12.89
2023-05-10T23:09:06.633Z,12.87
2023-05-10T23:11:33.548Z,12.83
2023-05-10T23:14:00.557Z,12.82
2023-05-10T23:16:27.504Z,12.79
2023-05-10T23:18:54.772Z,12.77
2023-05-10T23:21:21.815Z,12.74
2023-05-10T23:23:48.791Z,12.72
2023-05-10T23:26:16.225Z,12.70
2023-05-10T23:28:43.235Z,12.68
2023-05-10T23:31:10.166Z,12.66
2023-05-10T23:33:37.153Z,12.64
2023-05-10T23:36:04.255Z,12.62
2023-05-10T23:38:31.203Z,12.59
2023-05-10T23:40:58.378Z,12.57
2023-05-10T23:43:25.496Z,12.54
2023-05-10T23:45:55.048Z,12.52
2023-05-10T23:48:22.138Z,12.49
2023-05-10T23:50:49.365Z,12.46
2023-05-10T23:53:16.665Z,12.42
2023-05-10T23:55:43.670Z,12.40
2023-05-10T23:58:10.641Z,12.38
